createdAt,value
2017-12-21T00:01:25.177Z,6.71
2017-12-21T00:03:54.837Z,6.72
2017-12-21T00:06:24.679Z,6.72
2017-12-21T00:08:54.451Z,6.70
2017-12-21T00:11:24.235Z,6.72
2017-12-21T00:13:54.075Z,6.72
2017-12-21T00:16:23.748Z,6.75
2017-12-21T00:18:53.567Z,6.74
2017-12-21T00:21:23.365Z,6.73
2017-12-21T00:23:53.226Z,6.75
2017-12-21T00:26:23.056Z,6.74
2017-12-21T00:28:52.847Z,6.74
2017-12-21T00:31:22.616Z,6.76
2017-12-21T00:33:52.432Z,6.74
2017-12-21T00:36:22.292Z,6.75
2017-12-21T00:38:52.162Z,6.75
2017-12-21T00:41:21.972Z,6.76
2017-12-21T00:43:51.772Z,6.76
2017-12-21T00:46:21.600Z,6.76
2017-12-21T00:48:51.379Z,6.76
2017-12-21T00:51:21.231Z,6.77
2017-12-21T00:53:50.995Z,6.78
2017-12-21T00:56:20.807Z,6.77
2017-12-21T00:58:50.655Z,6.77
2017-12-21T01:01:20.428Z,6.77
2017-12-21T01:03:50.268Z,6.78
2017-12-21T01:06:20.095Z,6.79
2017-12-21T01:08:49.889Z,6.80
2017-12-21T01:11:19.746Z,6.80
2017-12-21T01:13:49.525Z,6.80
2017-12-21T01:16:19.286Z,6.80
2017-12-21T01:18:49.104Z,6.81
2017-12-21T01:21:18.898Z,6.81
2017-12-21T01:23:48.736Z,6.82
2017-12-21T01:26:18.541Z,6.81
2017-12-21T01:28:48.392Z,6.82
2017-12-21T01:31:18.222Z,6.82
2017-12-21T01:33:48.018Z,6.83
2017-12-21T01:36:17.816Z,6.83
2017-12-21T01:38:47.648Z,6.84
2017-12-21T01:41:28.983Z,6.83
2017-12-21T01:44:09.098Z,6.85
2017-12-21T01:46:49.692Z,6.86
2017-12-21T01:52:23.647Z,6.87
2017-12-21T01:55:07.345Z,6.88
2017-12-21T01:57:40.557Z,6.87
2017-12-21T02:00:13.906Z,6.89
2017-12-21T02:02:45.817Z,6.90
2017-12-21T02:05:17.307Z,6.91
2017-12-21T02:07:48.757Z,6.91
2017-12-21T02:10:20.431Z,6.91
2017-12-21T02:12:51.777Z,6.91
2017-12-21T02:15:24.703Z,6.92
2017-12-21T02:17:57.102Z,6.93
2017-12-21T02:20:26.789Z,6.94
2017-12-21T02:22:56.331Z,6.94
2017-12-21T02:25:25.942Z,6.94
2017-12-21T02:27:55.237Z,6.96
2017-12-21T02:30:24.771Z,6.95
2017-12-21T02:32:54.354Z,6.97
2017-12-21T02:35:23.926Z,6.98
2017-12-21T02:37:53.507Z,6.98
2017-12-21T02:40:23.025Z,6.99
2017-12-21T02:42:52.871Z,7.00
2017-12-21T02:45:22.760Z,7.02
2017-12-21T02:47:52.321Z,7.01
2017-12-21T02:50:21.953Z,7.02
2017-12-21T02:52:51.603Z,7.02
2017-12-21T02:55:21.481Z,7.03
2017-12-21T02:57:51.093Z,7.04
2017-12-21T03:00:20.936Z,7.04
2017-12-21T03:02:50.767Z,7.04
2017-12-21T03:05:20.322Z,7.04
2017-12-21T03:07:50.166Z,7.06
2017-12-21T03:10:20.070Z,7.06
2017-12-21T03:12:49.635Z,7.06
2017-12-21T03:15:19.154Z,7.08
2017-12-21T03:17:48.994Z,7.08
2017-12-21T03:20:18.843Z,7.07
2017-12-21T03:22:48.450Z,7.09
2017-12-21T03:25:18.331Z,7.09
2017-12-21T03:27:48.112Z,7.10
2017-12-21T03:30:17.945Z,7.10
2017-12-21T03:32:47.775Z,7.11
2017-12-21T03:35:17.624Z,7.11
2017-12-21T03:37:47.486Z,7.13
2017-12-21T03:40:17.318Z,7.12
2017-12-21T03:42:47.116Z,7.12
2017-12-21T03:45:16.968Z,7.13
2017-12-21T03:47:46.758Z,7.13
2017-12-21T03:50:16.594Z,7.12
2017-12-21T03:52:46.397Z,7.12
2017-12-21T03:55:16.706Z,7.14
2017-12-21T03:57:46.569Z,7.14
2017-12-21T04:00:16.659Z,7.15
2017-12-21T04:02:46.287Z,7.14
2017-12-21T04:05:16.111Z,7.15
2017-12-21T04:07:45.952Z,7.16
2017-12-21T04:10:15.756Z,7.16
2017-12-21T04:12:46.815Z,7.16
2017-12-21T04:15:18.294Z,7.16
2017-12-21T04:17:48.263Z,7.17
2017-12-21T04:20:18.064Z,7.17
2017-12-21T04:22:47.892Z,7.17
2017-12-21T04:25:17.741Z,7.17
2017-12-21T04:27:47.861Z,7.17
2017-12-21T04:30:17.345Z,7.18
2017-12-21T04:32:47.212Z,7.18
2017-12-21T04:35:17.738Z,7.18
2017-12-21T04:37:48.139Z,7.18
2017-12-21T04:40:24.432Z,7.18
2017-12-21T04:42:59.681Z,7.18
2017-12-21T04:45:34.457Z,7.18
2017-12-21T04:48:04.972Z,7.19
2017-12-21T04:50:35.746Z,7.19
2017-12-21T04:53:05.534Z,7.20
2017-12-21T04:55:35.335Z,7.20
2017-12-21T04:58:05.188Z,7.19
2017-12-21T05:00:34.997Z,7.21
2017-12-21T05:03:04.890Z,7.21
2017-12-21T05:05:34.720Z,7.21
2017-12-21T05:08:04.564Z,7.21
2017-12-21T05:10:34.392Z,7.22
2017-12-21T05:13:04.015Z,7.22
2017-12-21T05:15:33.880Z,7.22
2017-12-21T05:18:05.248Z,7.22
2017-12-21T05:20:35.092Z,7.24
2017-12-21T05:23:05.913Z,7.23
2017-12-21T05:25:35.803Z,7.24
2017-12-21T05:28:05.603Z,7.24
2017-12-21T05:30:35.222Z,7.23
2017-12-21T05:33:05.063Z,7.23
2017-12-21T05:35:36.077Z,7.23
2017-12-21T05:38:06.550Z,7.24
2017-12-21T05:40:37.120Z,7.24
2017-12-21T05:43:06.934Z,7.24
2017-12-21T05:45:36.737Z,7.24
2017-12-21T05:48:06.566Z,7.25
2017-12-21T05:50:36.382Z,7.25
2017-12-21T05:53:06.216Z,7.26
2017-12-21T05:55:36.041Z,7.27
2017-12-21T05:58:05.872Z,7.27
2017-12-21T06:00:35.430Z,7.30
2017-12-21T06:03:05.324Z,7.30
2017-12-21T06:05:35.334Z,7.28
2017-12-21T06:08:05.127Z,7.27
2017-12-21T06:10:34.956Z,7.28
2017-12-21T06:13:04.792Z,7.28
2017-12-21T06:15:34.595Z,7.28
2017-12-21T06:18:04.426Z,7.27
2017-12-21T06:20:34.229Z,7.27
2017-12-21T06:23:04.090Z,7.27
2017-12-21T06:25:33.878Z,7.27
2017-12-21T06:28:03.720Z,7.28
2017-12-21T06:30:33.526Z,7.29
2017-12-21T06:33:03.368Z,7.27
2017-12-21T06:35:33.151Z,7.27
2017-12-21T06:38:02.956Z,7.27
2017-12-21T06:40:32.787Z,7.26
2017-12-21T06:43:02.316Z,7.26
2017-12-21T06:45:32.154Z,7.26
2017-12-21T06:48:01.946Z,7.24
2017-12-21T06:50:31.771Z,7.25
2017-12-21T06:53:01.603Z,7.24
2017-12-21T06:55:31.431Z,7.26
2017-12-21T06:58:01.436Z,7.24
2017-12-21T07:00:31.284Z,7.24
2017-12-21T07:03:01.071Z,7.24
2017-12-21T07:05:30.870Z,7.24
2017-12-21T07:08:00.730Z,7.24
2017-12-21T07:10:30.506Z,7.23
2017-12-21T07:13:00.299Z,7.21
2017-12-21T07:15:30.148Z,7.21
2017-12-21T07:17:59.970Z,7.22
2017-12-21T07:20:29.683Z,7.21
2017-12-21T07:22:59.492Z,7.20
2017-12-21T07:25:29.278Z,7.21
2017-12-21T07:27:59.118Z,7.20
2017-12-21T07:30:28.704Z,7.19
2017-12-21T07:32:58.548Z,7.18
2017-12-21T07:35:28.336Z,7.18
2017-12-21T07:37:58.109Z,7.18
2017-12-21T07:40:27.927Z,7.18
2017-12-21T07:42:57.711Z,7.17
2017-12-21T07:45:27.186Z,7.17
2017-12-21T07:47:56.965Z,7.15
2017-12-21T07:50:26.818Z,7.15
2017-12-21T07:52:56.666Z,7.15
2017-12-21T07:55:26.447Z,7.14
2017-12-21T07:57:56.239Z,7.13
2017-12-21T08:00:26.062Z,7.13
2017-12-21T08:02:55.857Z,7.12
2017-12-21T08:05:25.643Z,7.10
2017-12-21T08:07:55.503Z,7.10
2017-12-21T08:10:25.316Z,7.11
2017-12-21T08:12:55.163Z,7.09
2017-12-21T08:15:24.943Z,7.07
2017-12-21T08:17:54.714Z,7.05
2017-12-21T08:20:24.538Z,7.05
2017-12-21T08:22:54.397Z,7.04
2017-12-21T08:25:24.167Z,7.03
2017-12-21T08:27:54.016Z,7.02
2017-12-21T08:30:23.798Z,7.00
2017-12-21T08:32:53.647Z,6.96
2017-12-21T08:35:23.449Z,6.94
2017-12-21T08:37:53.210Z,6.92
2017-12-21T08:40:23.031Z,6.92
2017-12-21T08:42:52.800Z,6.91
2017-12-21T08:45:22.660Z,6.89
2017-12-21T08:47:52.455Z,6.88
2017-12-21T08:50:22.238Z,6.87
2017-12-21T08:52:52.085Z,6.85
2017-12-21T08:55:21.862Z,6.83
2017-12-21T08:57:51.687Z,6.81
2017-12-21T09:00:21.468Z,6.81
2017-12-21T09:02:51.314Z,6.79
2017-12-21T09:05:21.129Z,6.78
2017-12-21T09:07:50.908Z,6.77
2017-12-21T09:10:20.756Z,6.76
2017-12-21T09:12:50.545Z,6.73
2017-12-21T09:15:20.393Z,6.73
2017-12-21T09:17:50.238Z,6.70
2017-12-21T09:20:20.106Z,6.69
2017-12-21T09:22:49.976Z,6.74
2017-12-21T09:25:19.801Z,6.69
2017-12-21T09:27:49.648Z,6.66
2017-12-21T09:30:19.608Z,6.65
2017-12-21T09:32:49.537Z,6.65
2017-12-21T09:35:19.356Z,6.64
2017-12-21T09:37:49.231Z,6.63
2017-12-21T09:40:19.074Z,6.63
2017-12-21T09:42:48.960Z,6.62
2017-12-21T09:45:18.766Z,6.61
2017-12-21T09:47:48.603Z,6.60
2017-12-21T09:50:18.449Z,6.61
2017-12-21T09:52:48.320Z,6.60
2017-12-21T09:55:18.252Z,6.58
2017-12-21T09:57:48.119Z,6.58
2017-12-21T10:00:18.028Z,6.59
2017-12-21T10:02:47.923Z,6.58
2017-12-21T10:05:17.717Z,6.59
2017-12-21T10:07:47.515Z,6.58
2017-12-21T10:10:17.343Z,6.58
2017-12-21T10:12:47.174Z,6.58
2017-12-21T10:15:16.990Z,6.59
2017-12-21T10:17:46.823Z,6.58
2017-12-21T10:20:16.648Z,6.59
2017-12-21T10:22:46.504Z,6.59
2017-12-21T10:25:16.384Z,6.59
2017-12-21T10:27:46.266Z,6.60
2017-12-21T10:30:16.104Z,6.59
2017-12-21T10:32:45.981Z,6.59
2017-12-21T10:35:15.818Z,6.59
2017-12-21T10:37:45.670Z,6.60
2017-12-21T10:40:15.527Z,6.62
2017-12-21T10:42:45.360Z,6.62
2017-12-21T10:45:15.213Z,6.62
2017-12-21T10:47:45.023Z,6.63
2017-12-21T10:50:14.916Z,6.63
2017-12-21T10:52:44.683Z,6.63
2017-12-21T10:55:14.529Z,6.62
2017-12-21T10:57:44.383Z,6.61
2017-12-21T11:00:14.223Z,6.60
2017-12-21T11:02:43.832Z,6.62
2017-12-21T11:05:16.275Z,6.62
2017-12-21T11:07:46.260Z,6.60
2017-12-21T11:10:17.834Z,6.61
2017-12-21T11:12:47.741Z,6.59
2017-12-21T11:15:17.631Z,6.60
2017-12-21T11:17:47.477Z,6.60
2017-12-21T11:20:17.375Z,6.59
2017-12-21T11:22:47.222Z,6.59
2017-12-21T11:25:17.087Z,6.59
2017-12-21T11:27:46.623Z,6.60
2017-12-21T11:30:16.459Z,6.59
2017-12-21T11:32:46.417Z,6.59
2017-12-21T11:35:16.226Z,6.59
2017-12-21T11:37:45.886Z,6.59
2017-12-21T11:40:15.713Z,6.59
2017-12-21T11:42:45.375Z,6.59
2017-12-21T11:45:15.235Z,6.60
2017-12-21T11:47:45.141Z,6.59
2017-12-21T11:50:14.969Z,6.60
2017-12-21T11:52:44.790Z,6.60
2017-12-21T11:55:14.650Z,6.61
2017-12-21T11:57:44.480Z,6.62
2017-12-21T12:00:14.052Z,6.60
2017-12-21T12:02:43.927Z,6.60
2017-12-21T12:05:13.784Z,6.62
2017-12-21T12:07:43.662Z,6.61
2017-12-21T12:10:13.523Z,6.61
2017-12-21T12:12:43.359Z,6.62
2017-12-21T12:15:13.219Z,6.62
2017-12-21T12:17:43.061Z,6.60
2017-12-21T12:20:12.892Z,6.62
2017-12-21T12:22:42.703Z,6.61
2017-12-21T12:25:12.556Z,6.59
2017-12-21T12:27:42.384Z,6.60
2017-12-21T12:30:12.248Z,6.61
2017-12-21T12:32:42.113Z,6.62
2017-12-21T12:35:11.796Z,6.62
2017-12-21T12:37:41.640Z,6.62
2017-12-21T12:40:11.431Z,6.62
2017-12-21T12:42:40.923Z,6.63
2017-12-21T12:45:10.816Z,6.63
2017-12-21T12:47:40.888Z,6.64
2017-12-21T12:50:10.731Z,6.63
2017-12-21T12:52:40.574Z,6.64
2017-12-21T12:55:10.390Z,6.65
2017-12-21T12:57:40.238Z,6.65
2017-12-21T13:00:10.085Z,6.64
2017-12-21T13:02:39.993Z,6.65
2017-12-21T13:05:09.858Z,6.64
2017-12-21T13:07:39.719Z,6.67
2017-12-21T13:10:09.532Z,6.67
2017-12-21T13:12:39.386Z,6.67
2017-12-21T13:15:09.191Z,6.68
2017-12-21T13:17:39.000Z,6.68
2017-12-21T13:20:08.859Z,6.68
2017-12-21T13:22:38.672Z,6.69
2017-12-21T13:25:08.530Z,6.68
2017-12-21T13:27:38.311Z,6.67
2017-12-21T13:30:08.129Z,6.68
2017-12-21T13:32:38.027Z,6.69
2017-12-21T13:35:07.875Z,6.66
2017-12-21T13:37:37.768Z,6.68
2017-12-21T13:40:07.593Z,6.67
2017-12-21T13:42:37.419Z,6.67
2017-12-21T13:45:07.259Z,6.68
2017-12-21T13:47:37.061Z,6.67
2017-12-21T13:50:06.916Z,6.68
2017-12-21T13:52:36.752Z,6.68
2017-12-21T13:55:06.562Z,6.69
2017-12-21T13:57:36.439Z,6.68
2017-12-21T14:00:05.988Z,6.67
2017-12-21T14:02:35.695Z,6.68
2017-12-21T14:05:05.563Z,6.66
2017-12-21T14:07:35.364Z,6.65
2017-12-21T14:10:05.241Z,6.66
2017-12-21T14:12:35.080Z,6.67
2017-12-21T14:15:04.985Z,6.67
2017-12-21T14:17:34.860Z,6.66
2017-12-21T14:20:04.681Z,6.65
2017-12-21T14:22:34.540Z,6.66
2017-12-21T14:25:04.420Z,6.65
2017-12-21T14:27:34.262Z,6.65
2017-12-21T14:30:06.991Z,6.66
2017-12-21T14:32:36.938Z,6.65
2017-12-21T14:35:06.754Z,6.65
2017-12-21T14:37:36.607Z,6.64
2017-12-21T14:40:06.501Z,6.64
2017-12-21T14:42:36.283Z,6.63
2017-12-21T14:45:06.124Z,6.62
2017-12-21T14:47:35.910Z,6.60
2017-12-21T14:50:05.754Z,6.60
2017-12-21T14:52:35.582Z,6.59
2017-12-21T14:55:05.398Z,6.60
2017-12-21T14:57:35.252Z,6.59
2017-12-21T15:00:04.648Z,6.59
2017-12-21T15:02:34.492Z,6.59
2017-12-21T15:05:04.275Z,6.58
2017-12-21T15:07:34.152Z,6.59
2017-12-21T15:10:03.938Z,6.58
2017-12-21T15:12:33.755Z,6.58
2017-12-21T15:15:03.568Z,6.57
2017-12-21T15:17:33.420Z,6.57
2017-12-21T15:20:03.245Z,6.55
2017-12-21T15:22:33.051Z,6.54
2017-12-21T15:25:02.883Z,6.54
2017-12-21T15:27:32.696Z,6.54
2017-12-21T15:30:02.523Z,6.54
2017-12-21T15:32:32.544Z,6.54
2017-12-21T15:35:02.375Z,6.53
2017-12-21T15:37:32.146Z,6.54
2017-12-21T15:40:01.981Z,6.53
2017-12-21T15:42:31.849Z,6.53
2017-12-21T15:45:01.644Z,6.51
2017-12-21T15:47:31.480Z,6.52
2017-12-21T15:50:01.242Z,6.51
2017-12-21T15:52:31.055Z,6.51
2017-12-21T15:55:00.879Z,6.51
2017-12-21T15:57:30.724Z,6.51
2017-12-21T16:00:00.515Z,6.49
2017-12-21T16:02:30.108Z,6.49
2017-12-21T16:04:59.942Z,6.49
2017-12-21T16:07:29.734Z,6.48
2017-12-21T16:09:59.571Z,6.47
2017-12-21T16:12:29.463Z,6.47
2017-12-21T16:14:59.331Z,6.48
2017-12-21T16:17:44.358Z,6.47
2017-12-21T16:20:15.158Z,6.46
2017-12-21T16:22:45.010Z,6.44
2017-12-21T16:25:14.824Z,6.44
2017-12-21T16:27:44.432Z,6.43
2017-12-21T16:30:14.288Z,6.41
2017-12-21T16:32:44.099Z,6.39
2017-12-21T16:35:13.925Z,6.37
2017-12-21T16:37:43.764Z,6.35
2017-12-21T16:40:29.761Z,6.34
2017-12-21T16:43:04.310Z,6.32
2017-12-21T16:45:44.809Z,6.33
2017-12-21T16:48:30.260Z,6.33
2017-12-21T16:51:12.932Z,6.31
2017-12-21T16:53:52.178Z,6.31
2017-12-21T16:56:36.947Z,6.29
2017-12-21T16:59:17.759Z,6.30
2017-12-21T17:02:07.665Z,6.30
2017-12-21T17:04:53.494Z,6.29
2017-12-21T17:07:38.373Z,6.29
2017-12-21T17:10:20.269Z,6.30
2017-12-21T17:13:02.517Z,6.30
2017-12-21T17:18:53.777Z,6.31
2017-12-21T17:21:36.162Z,6.29
2017-12-21T17:24:16.740Z,6.27
2017-12-21T17:26:56.342Z,6.27
2017-12-21T17:29:37.816Z,6.27
2017-12-21T17:32:19.986Z,6.27
2017-12-21T17:34:57.110Z,6.28
2017-12-21T17:37:38.450Z,6.29
2017-12-21T17:40:24.558Z,6.29
2017-12-21T17:43:05.250Z,6.28
2017-12-21T17:45:51.087Z,6.28
2017-12-21T17:48:32.418Z,6.29
2017-12-21T17:51:16.706Z,6.29
2017-12-21T17:54:00.093Z,6.29
2017-12-21T17:56:42.631Z,6.27
2017-12-21T17:59:27.132Z,6.28
2017-12-21T18:02:02.753Z,6.28
2017-12-21T18:04:32.593Z,6.28
2017-12-21T18:07:02.404Z,6.28
2017-12-21T18:09:40.410Z,6.27
2017-12-21T18:12:25.577Z,6.27
2017-12-21T18:15:11.945Z,6.28
2017-12-21T18:17:56.476Z,6.28
2017-12-21T18:20:38.810Z,6.29
2017-12-21T18:23:24.593Z,6.28
2017-12-21T18:26:08.757Z,6.28
2017-12-21T18:28:47.935Z,6.28
2017-12-21T18:31:25.180Z,6.28
2017-12-21T18:34:11.638Z,6.29
2017-12-21T18:36:54.365Z,6.29
2017-12-21T18:39:42.828Z,6.29
2017-12-21T18:42:30.819Z,6.29
2017-12-21T18:45:18.003Z,6.29
2017-12-21T18:48:03.439Z,6.29
2017-12-21T18:50:44.135Z,6.29
2017-12-21T18:53:29.087Z,6.30
2017-12-21T18:56:16.014Z,6.30
2017-12-21T18:59:02.241Z,6.29
2017-12-21T19:01:45.759Z,6.29
2017-12-21T19:04:29.376Z,6.28
2017-12-21T19:07:18.149Z,6.29
2017-12-21T19:10:00.826Z,6.30
2017-12-21T19:12:49.296Z,6.30
2017-12-21T19:15:30.926Z,6.29
2017-12-21T19:18:07.366Z,6.30
2017-12-21T19:20:46.577Z,6.30
2017-12-21T19:23:18.020Z,6.30
2017-12-21T19:25:49.875Z,6.30
2017-12-21T19:28:19.716Z,6.30
2017-12-21T19:30:49.559Z,6.29
2017-12-21T19:33:19.437Z,6.29
2017-12-21T19:35:51.198Z,6.29
2017-12-21T19:38:21.110Z,6.29
2017-12-21T19:40:50.957Z,6.30
2017-12-21T19:43:22.664Z,6.30
2017-12-21T19:45:52.208Z,6.30
2017-12-21T19:48:22.133Z,6.30
2017-12-21T19:50:52.019Z,6.30
2017-12-21T19:53:21.856Z,6.30
2017-12-21T19:55:51.404Z,6.30
2017-12-21T19:58:21.247Z,6.31
2017-12-21T20:00:51.140Z,6.32
2017-12-21T20:03:21.006Z,6.30
2017-12-21T20:05:50.799Z,6.30
2017-12-21T20:08:20.665Z,6.31
2017-12-21T20:10:51.050Z,6.31
2017-12-21T20:13:20.883Z,6.33
2017-12-21T20:15:54.440Z,6.33
2017-12-21T20:18:24.635Z,6.33
2017-12-21T20:20:54.483Z,6.33
2017-12-21T20:23:24.311Z,6.32
2017-12-21T20:26:01.422Z,6.34
2017-12-21T20:28:32.556Z,6.34
2017-12-21T20:31:02.335Z,6.34
2017-12-21T20:33:36.500Z,6.35
2017-12-21T20:36:09.281Z,6.36
2017-12-21T20:38:43.470Z,6.35
2017-12-21T20:41:28.857Z,6.35
2017-12-21T20:44:19.224Z,6.36
2017-12-21T20:47:07.851Z,6.38
2017-12-21T20:49:50.362Z,6.39
2017-12-21T20:52:37.013Z,6.39
2017-12-21T20:58:18.506Z,6.41
2017-12-21T21:01:08.395Z,6.40
2017-12-21T21:03:57.930Z,6.42
2017-12-21T21:06:47.937Z,6.41
2017-12-21T21:09:36.816Z,6.42
2017-12-21T21:12:25.954Z,6.42
2017-12-21T21:15:14.052Z,6.42
2017-12-21T21:18:02.851Z,6.44
2017-12-21T21:20:49.738Z,6.44
2017-12-21T21:23:37.123Z,6.44
2017-12-21T21:26:26.395Z,6.45
2017-12-21T21:29:13.799Z,6.46
2017-12-21T21:31:59.674Z,6.45
2017-12-21T21:34:44.521Z,6.46
2017-12-21T21:37:28.568Z,6.47
2017-12-21T21:40:17.840Z,6.47
2017-12-21T21:42:50.014Z,6.47
2017-12-21T21:45:19.858Z,6.48
2017-12-21T21:47:49.630Z,6.48
2017-12-21T21:50:19.446Z,6.48
2017-12-21T21:52:49.282Z,6.49
2017-12-21T21:55:19.082Z,6.49
2017-12-21T21:57:48.932Z,6.51
2017-12-21T22:00:18.513Z,6.50
2017-12-21T22:02:48.398Z,6.51
2017-12-21T22:05:18.246Z,6.50
2017-12-21T22:07:48.143Z,6.51
2017-12-21T22:10:17.939Z,6.51
2017-12-21T22:12:47.731Z,6.51
2017-12-21T22:15:17.570Z,6.50
2017-12-21T22:17:47.368Z,6.52
2017-12-21T22:20:17.251Z,6.52
2017-12-21T22:22:47.094Z,6.51
2017-12-21T22:25:16.942Z,6.52
2017-12-21T22:27:46.783Z,6.51
2017-12-21T22:30:16.635Z,6.51
2017-12-21T22:32:46.477Z,6.51
2017-12-21T22:35:16.394Z,6.51
2017-12-21T22:37:46.264Z,6.51
2017-12-21T22:40:21.285Z,6.50
2017-12-21T22:42:51.161Z,6.50
2017-12-21T22:45:21.009Z,6.51
2017-12-21T22:47:50.824Z,6.51
2017-12-21T22:50:20.666Z,6.51
2017-12-21T22:52:50.495Z,6.51
2017-12-21T22:55:20.362Z,6.51
2017-12-21T22:57:50.170Z,6.51
2017-12-21T23:00:25.323Z,6.52
2017-12-21T23:02:54.911Z,6.51
2017-12-21T23:05:24.858Z,6.51
2017-12-21T23:07:54.722Z,6.51
2017-12-21T23:10:24.512Z,6.51
2017-12-21T23:12:54.331Z,6.50
2017-12-21T23:15:24.171Z,6.51
2017-12-21T23:17:53.807Z,6.51
2017-12-21T23:20:23.621Z,6.51
2017-12-21T23:22:53.471Z,6.51
2017-12-21T23:25:23.266Z,6.52
2017-12-21T23:27:53.071Z,6.52
2017-12-21T23:30:22.972Z,6.52
2017-12-21T23:32:53.033Z,6.52
2017-12-21T23:35:22.633Z,6.52
2017-12-21T23:37:52.587Z,6.53
2017-12-21T23:40:23.655Z,6.53
2017-12-21T23:42:53.581Z,6.52
2017-12-21T23:45:32.875Z,6.52
2017-12-21T23:48:06.861Z,6.53
2017-12-21T23:50:36.675Z,6.52
2017-12-21T23:53:06.200Z,6.53
2017-12-21T23:55:36.027Z,6.53
2017-12-21T23:58:05.975Z,6.52
